Vanetia, Texas
Current Conditions -  °F | °C
As of 12:35 AM on Saturday 20 Dec 2014 (Local Time) from KLHB Reporting Station
Overcast Overcast  
Wind Chill: 45°   Ceiling: 900
Heat Index: 48°   Visibility: 7mi
Dew Point: 46°   Wind: 7mph
Humidity: 94%   Direction: 350°N
Pressure: 30.21"   Gusts: NA
Location:  31.2206°N, 96.2362°W
Report Text: KLHB 200635Z AUTO 35006KT 7SM OVC009 09/08 A3021 RMK AO2 T00880079
Loading
Personal Weather Stations






























Interactive Weather Map New forecast layout! Learn more

10-Day Weather Forecast

Advertisements
Track Severe Weather on mobile